Main page
METAR-TAF:

METAR-TAF

Airports :

Eppley Airfield

Omaha, Nebraska, United States

latitude: 41-18-37N, longitude: 095-53-57W, elevation: 981 ft

Current weather observation

The report was made 36 minutes ago, at 21:52 UTC
Wind 8 mph from the Southwest
Temperature 28°F
Humidity 43%
Pressure 30.71 in. Hg
Visibility: 10 miles
Clear sky

METAR: KOMA 202152Z 22007KT 10SM CLR M02/M13 A3071 RMK AO2 SLP417 T10171133

Time: 16:28 (22:28 UTC)

Forecast

The report was made 5 hours and 4 minutes ago, at 17:24 UTC
Forecast valid from 20 at 18 UTC to 21 at 18 UTC
Wind 7 mph from variable directions
Visibility: 6 miles
Clear sky
From 21 at 0000 UTC
Wind 7 mph from the South
Visibility: 6 miles
Clear sky
From 21 at 1200 UTC
Wind 13 mph from the South
Visibility: 6 miles
Clear sky
From 21 at 1500 UTC
Wind 16 mph from the South with gusts up to 25 mph
Visibility: 6 miles
Clear sky

TAF: KOMA 201724Z 2018/2118 VRB06KT P6SM SKC FM210000 18006KT P6SM SKC FM211200 18011KT P6SM SKC FM211500 19014G22KT P6SM SKC

Weather observations and forecasts of more than 4000 airports (METAR and TAF reports).

The available stations are represented by yellow and red dots on the map.

Hover mouse over dot to see the name of the station.

Then click to see weather observations and forecasts.

To change the map : click on the green buttons with a black cross to zoom in, on the green button with a dash to zoom out, or on the green arrows for adjacent maps.


METAR-TAF: